createdAt,value
2018-12-06T00:00:53.887Z,35.83
2018-12-06T00:03:22.244Z,32.00
2018-12-06T00:05:50.522Z,32.40
2018-12-06T00:08:19.293Z,37.73
2018-12-06T00:11:00.005Z,34.23
2018-12-06T00:16:28.345Z,31.90
2018-12-06T00:19:07.706Z,30.13
2018-12-06T00:21:39.404Z,29.43
2018-12-06T00:29:11.111Z,37.77
2018-12-06T00:31:45.703Z,33.00
2018-12-06T00:34:20.719Z,36.87
2018-12-06T00:36:55.345Z,28.53
2018-12-06T00:39:29.231Z,30.30
2018-12-06T00:42:03.024Z,29.57
2018-12-06T00:44:34.384Z,32.30
2018-12-06T00:47:06.428Z,30.10
2018-12-06T00:49:38.380Z,30.00
2018-12-06T00:52:10.573Z,29.43
2018-12-06T00:54:42.292Z,34.87
2018-12-06T00:57:14.240Z,28.67
2018-12-06T00:59:46.264Z,30.07
2018-12-06T01:02:16.329Z,31.43
2018-12-06T01:04:48.545Z,36.13
2018-12-06T01:07:20.508Z,36.27
2018-12-06T01:09:54.636Z,28.27
2018-12-06T01:12:28.642Z,30.70
2018-12-06T01:15:03.603Z,32.83
2018-12-06T01:17:34.977Z,31.77
2018-12-06T01:20:09.754Z,32.15
2018-12-06T01:22:41.704Z,25.97
2018-12-06T01:25:16.292Z,26.60
2018-12-06T01:27:51.089Z,29.90
2018-12-06T01:30:24.732Z,33.70
2018-12-06T01:32:56.501Z,36.50
2018-12-06T01:35:26.356Z,30.57
2018-12-06T01:37:58.317Z,28.33
2018-12-06T01:40:30.473Z,32.20
2018-12-06T01:43:05.557Z,33.00
2018-12-06T01:45:37.267Z,30.80
2018-12-06T01:48:09.705Z,30.63
2018-12-06T01:50:41.319Z,31.60
2018-12-06T01:53:15.655Z,26.50
2018-12-06T01:55:50.616Z,27.40
2018-12-06T01:58:28.295Z,29.73
2018-12-06T02:00:59.961Z,27.10
2018-12-06T02:03:31.886Z,27.33
2018-12-06T02:06:07.439Z,27.70
2018-12-06T02:08:39.127Z,26.77
2018-12-06T02:11:13.197Z,28.50
2018-12-06T02:13:44.589Z,24.37
2018-12-06T02:16:16.694Z,29.43
2018-12-06T02:18:48.439Z,34.20
2018-12-06T02:21:18.605Z,30.40
2018-12-06T02:23:49.324Z,36.80
2018-12-06T02:26:21.353Z,38.03
2018-12-06T02:36:27.122Z,26.00
2018-12-06T02:41:29.760Z,33.37
2018-12-06T02:44:04.646Z,30.60
2018-12-06T02:46:36.701Z,29.57
2018-12-06T02:49:08.961Z,32.83
2018-12-06T02:51:40.645Z,32.53
2018-12-06T02:54:16.083Z,32.30
2018-12-06T02:56:47.639Z,33.67
2018-12-06T02:59:22.370Z,30.32
2018-12-06T03:01:53.788Z,30.10
2018-12-06T03:04:28.253Z,33.50
2018-12-06T03:07:04.139Z,33.60
2018-12-06T03:09:38.491Z,30.70
2018-12-06T03:12:12.970Z,33.30
2018-12-06T03:14:48.905Z,30.83
2018-12-06T03:17:22.909Z,29.43
2018-12-06T03:19:54.918Z,26.67
2018-12-06T03:23:22.229Z,30.00
2018-12-06T03:26:00.075Z,28.10
2018-12-06T03:28:34.044Z,29.10
2018-12-06T03:31:05.698Z,25.90
2018-12-06T03:33:41.288Z,27.83
2018-12-06T03:36:12.776Z,28.80
2018-12-06T03:38:47.250Z,25.87
2018-12-06T03:41:19.199Z,26.97
2018-12-06T03:43:55.722Z,25.20
2018-12-06T03:46:27.514Z,26.60
2018-12-06T03:49:01.867Z,25.60
2018-12-06T03:51:36.253Z,25.80
2018-12-06T03:54:07.791Z,25.20
2018-12-06T03:56:39.760Z,29.03
2018-12-06T03:59:12.130Z,25.43
2018-12-06T04:01:44.103Z,26.13
2018-12-06T04:04:18.457Z,33.33
2018-12-06T04:06:52.294Z,28.40
2018-12-06T04:09:26.625Z,24.27
2018-12-06T04:11:58.859Z,32.93
2018-12-06T04:14:30.762Z,29.80
2018-12-06T04:17:06.149Z,30.77
2018-12-06T04:19:38.025Z,30.57
2018-12-06T04:22:08.131Z,29.07
2018-12-06T04:24:39.927Z,37.80
2018-12-06T04:27:14.244Z,28.90
2018-12-06T04:29:48.578Z,25.37
2018-12-06T04:32:22.725Z,25.47
2018-12-06T04:34:54.861Z,27.70
2018-12-06T04:37:30.233Z,20.77
2018-12-06T04:40:02.168Z,25.03
2018-12-06T04:42:38.315Z,27.50
2018-12-06T04:45:11.207Z,30.97
2018-12-06T04:47:45.473Z,27.20
2018-12-06T04:50:19.369Z,28.83
2018-12-06T04:52:54.048Z,27.37
2018-12-06T04:55:25.432Z,25.77
2018-12-06T04:57:59.702Z,24.97
2018-12-06T05:00:31.292Z,26.93
2018-12-06T05:03:03.485Z,26.30
2018-12-06T05:05:35.898Z,23.10
2018-12-06T05:11:08.144Z,25.90
2018-12-06T05:13:39.738Z,28.30
2018-12-06T05:16:14.261Z,27.03
2018-12-06T05:18:49.832Z,25.83
2018-12-06T05:21:27.577Z,28.00
2018-12-06T05:24:01.566Z,28.27
2018-12-06T05:26:32.810Z,24.50
2018-12-06T05:29:13.624Z,26.43
2018-12-06T05:31:41.787Z,27.23
2018-12-06T05:34:09.946Z,30.10
2018-12-06T05:36:45.162Z,30.33
2018-12-06T05:42:09.294Z,27.20
2018-12-06T05:44:37.549Z,25.53
2018-12-06T05:47:05.652Z,25.20
2018-12-06T05:49:33.831Z,28.57
2018-12-06T05:52:02.039Z,27.57
2018-12-06T05:54:30.241Z,24.97
2018-12-06T05:56:58.535Z,28.60
2018-12-06T05:59:27.065Z,26.00
2018-12-06T06:01:55.518Z,28.20
2018-12-06T06:04:23.793Z,30.83
2018-12-06T06:06:51.986Z,27.00
2018-12-06T06:09:20.258Z,32.40
2018-12-06T06:11:48.401Z,29.43
2018-12-06T06:14:22.400Z,30.23
2018-12-06T06:16:50.567Z,30.13
2018-12-06T06:19:18.717Z,30.27
2018-12-06T06:24:43.432Z,28.55
2018-12-06T06:27:14.911Z,34.60
2018-12-06T06:29:43.089Z,29.40
2018-12-06T06:32:11.341Z,30.03
2018-12-06T06:34:39.530Z,31.60
2018-12-06T06:37:14.821Z,30.63
2018-12-06T06:39:43.025Z,30.80
2018-12-06T06:45:10.415Z,28.73
2018-12-06T06:47:45.798Z,31.37
2018-12-06T06:50:20.966Z,31.80
2018-12-06T06:52:55.273Z,28.43
2018-12-06T06:55:29.668Z,28.37
2018-12-06T06:57:59.125Z,32.30
2018-12-06T07:00:33.754Z,29.93
2018-12-06T07:03:06.086Z,34.73
2018-12-06T07:05:40.936Z,30.67
2018-12-06T07:08:12.520Z,29.00
2018-12-06T07:10:47.550Z,29.70
2018-12-06T07:13:17.017Z,30.13
2018-12-06T07:15:51.389Z,31.63
2018-12-06T07:18:23.295Z,29.40
2018-12-06T07:20:58.065Z,34.80
2018-12-06T07:23:29.677Z,26.73
2018-12-06T07:26:03.777Z,26.83
2018-12-06T07:28:38.075Z,23.97
2018-12-06T07:31:10.250Z,30.70
2018-12-06T07:33:42.486Z,28.20
2018-12-06T07:36:11.961Z,26.80
2018-12-06T07:38:46.188Z,29.47
2018-12-06T07:41:18.864Z,31.00
2018-12-06T07:43:50.794Z,27.07
2018-12-06T07:46:22.711Z,22.90
2018-12-06T07:48:57.874Z,28.27
2018-12-06T07:51:29.414Z,25.87
2018-12-06T07:54:03.732Z,28.03
2018-12-06T07:56:37.465Z,26.87
2018-12-06T07:59:09.066Z,22.80
2018-12-06T08:01:41.114Z,18.20
2018-12-06T08:04:12.905Z,24.73
2018-12-06T08:06:48.528Z,23.87
2018-12-06T08:09:19.776Z,23.07
2018-12-06T08:11:51.913Z,28.03
2018-12-06T08:14:23.830Z,30.20
2018-12-06T08:16:55.999Z,27.27
2018-12-06T08:19:26.312Z,26.30
2018-12-06T08:21:57.799Z,25.37
2018-12-06T08:24:33.220Z,23.90
2018-12-06T08:27:07.909Z,24.80
2018-12-06T08:32:37.469Z,64.93
2018-12-06T08:35:09.089Z,24.27
2018-12-06T08:37:41.265Z,25.47
2018-12-06T08:40:15.413Z,24.80
2018-12-06T08:42:55.669Z,28.13
2018-12-06T08:45:31.036Z,21.40
2018-12-06T08:54:04.004Z,20.70
2018-12-06T08:59:29.159Z,24.33
2018-12-06T09:17:23.053Z,12.10
2018-12-06T09:20:10.832Z,11.03
2018-12-06T09:31:43.177Z,10.23
2018-12-06T09:34:17.119Z,9.83
2018-12-06T09:36:48.406Z,13.93
2018-12-06T09:39:23.917Z,10.17
2018-12-06T09:41:56.456Z,12.30
2018-12-06T09:44:31.000Z,11.93
2018-12-06T09:47:15.228Z,10.50
2018-12-06T09:50:00.321Z,11.87
2018-12-06T09:52:47.173Z,11.00
2018-12-06T10:01:43.506Z,15.43
2018-12-06T10:04:28.081Z,16.67
2018-12-06T10:10:05.674Z,16.30
2018-12-06T10:15:49.628Z,14.30
2018-12-06T10:18:23.829Z,17.03
2018-12-06T10:21:10.329Z,11.47
2018-12-06T10:23:45.054Z,9.67
2018-12-06T10:26:19.417Z,10.43
2018-12-06T10:28:51.807Z,11.50
2018-12-06T10:31:25.876Z,9.50
2018-12-06T10:34:12.512Z,7.23
2018-12-06T10:36:50.792Z,18.20
2018-12-06T10:39:24.576Z,6.93
2018-12-06T10:42:05.155Z,9.30
2018-12-06T10:44:52.096Z,5.40
2018-12-06T10:47:30.085Z,7.77
2018-12-06T10:50:08.066Z,6.93
2018-12-06T10:52:54.458Z,5.33
2018-12-06T10:55:41.180Z,8.43
2018-12-06T10:58:19.308Z,8.10
2018-12-06T11:00:59.609Z,9.23
2018-12-06T11:03:43.397Z,9.13
2018-12-06T11:06:28.450Z,8.50
2018-12-06T11:09:06.050Z,19.53
2018-12-06T11:11:46.360Z,13.60
2018-12-06T11:17:20.993Z,5.40
2018-12-06T11:20:05.076Z,10.90
2018-12-06T11:22:39.452Z,12.30
2018-12-06T11:25:17.209Z,12.83
2018-12-06T11:27:57.380Z,8.40
2018-12-06T11:30:31.843Z,19.30
2018-12-06T11:33:10.166Z,32.50
2018-12-06T13:31:32.929Z,6.30
2018-12-06T13:34:07.860Z,8.10
2018-12-06T13:36:36.136Z,6.77
2018-12-06T13:39:05.752Z,6.10
2018-12-06T13:41:34.000Z,5.40
2018-12-06T13:44:07.741Z,4.50
2018-12-06T13:46:42.294Z,4.73
2018-12-06T13:49:10.633Z,6.00
2018-12-06T13:51:39.013Z,5.77
2018-12-06T13:57:19.534Z,5.63
2018-12-06T13:59:59.034Z,3.13
2018-12-06T14:02:47.653Z,4.90
2018-12-06T14:05:22.562Z,6.60
2018-12-06T14:07:56.509Z,4.67
2018-12-06T14:10:28.302Z,4.07
2018-12-06T14:13:00.405Z,7.10
2018-12-06T14:15:32.386Z,6.20
2018-12-06T14:18:04.470Z,31.30
2018-12-06T14:20:36.026Z,8.67
2018-12-06T14:23:10.559Z,4.37
2018-12-06T14:25:42.804Z,4.30
2018-12-06T14:28:14.697Z,15.90
2018-12-06T14:30:46.740Z,15.73
2018-12-06T14:33:18.817Z,26.13
2018-12-06T14:35:52.908Z,16.13
2018-12-06T14:38:27.268Z,18.97
2018-12-06T14:41:01.826Z,22.93
2018-12-06T14:43:48.419Z,7.83
2018-12-06T14:46:20.352Z,10.03
2018-12-06T14:48:52.368Z,8.20
2018-12-06T14:51:26.974Z,22.30
2018-12-06T14:54:01.819Z,18.80
2018-12-06T14:56:36.253Z,14.30
2018-12-06T14:59:10.408Z,5.90
2018-12-06T15:01:44.442Z,3.70
2018-12-06T15:04:18.469Z,6.13
2018-12-06T15:06:50.216Z,18.43
2018-12-06T15:09:28.244Z,10.47
2018-12-06T15:12:02.460Z,3.83
2018-12-06T15:14:35.061Z,4.20
2018-12-06T15:17:09.879Z,4.20
2018-12-06T15:19:44.405Z,3.73
2018-12-06T15:22:18.607Z,5.23
2018-12-06T15:25:04.955Z,5.37
2018-12-06T15:27:43.418Z,5.63
2018-12-06T15:33:02.313Z,9.13
2018-12-06T15:38:42.863Z,8.57
2018-12-06T15:41:17.337Z,15.00
2018-12-06T15:43:52.902Z,37.67
2018-12-06T15:46:24.510Z,29.93
2018-12-06T15:48:56.616Z,28.73
2018-12-06T15:51:34.724Z,30.13
2018-12-06T15:54:09.586Z,26.03
2018-12-06T15:56:45.495Z,17.77
2018-12-06T15:59:30.317Z,9.27
2018-12-06T16:02:11.341Z,6.60
2018-12-06T16:04:47.898Z,6.57
2018-12-06T16:10:25.432Z,11.30
2018-12-06T16:12:56.924Z,5.13
2018-12-06T16:15:32.139Z,4.43
2018-12-06T16:18:06.339Z,6.50
2018-12-06T16:20:37.977Z,11.10
2018-12-06T16:23:12.584Z,6.03
2018-12-06T16:25:59.687Z,6.60
2018-12-06T16:28:33.792Z,4.30
2018-12-06T16:31:05.651Z,7.37
2018-12-06T16:33:38.674Z,7.63
2018-12-06T16:36:10.497Z,6.43
2018-12-06T16:38:45.122Z,5.67
2018-12-06T16:41:17.384Z,9.00
2018-12-06T16:43:48.690Z,7.80
2018-12-06T16:46:20.656Z,4.10
2018-12-06T16:48:55.508Z,5.13
2018-12-06T16:51:26.784Z,7.50
2018-12-06T16:53:59.495Z,6.27
2018-12-06T16:56:30.847Z,6.10
2018-12-06T16:59:05.121Z,6.77
2018-12-06T17:01:36.421Z,5.13
2018-12-06T17:04:10.473Z,5.70
2018-12-06T17:06:42.001Z,6.47
2018-12-06T17:09:14.193Z,4.73
2018-12-06T17:11:48.738Z,9.97
2018-12-06T17:14:20.112Z,6.87
2018-12-06T17:16:54.748Z,5.20
2018-12-06T17:19:26.011Z,7.07
2018-12-06T17:21:58.460Z,6.60
2018-12-06T17:24:30.529Z,5.97
2018-12-06T17:27:05.087Z,6.83
2018-12-06T17:29:37.189Z,6.70
2018-12-06T17:32:11.842Z,13.67
2018-12-06T17:34:46.763Z,11.37
2018-12-06T17:37:21.550Z,6.60
2018-12-06T17:39:53.793Z,8.60
2018-12-06T17:42:26.077Z,7.03
2018-12-06T17:45:00.336Z,6.87
2018-12-06T17:47:32.086Z,7.20
2018-12-06T17:55:09.510Z,7.37
2018-12-06T17:57:43.826Z,6.77
2018-12-06T18:00:18.273Z,5.77
2018-12-06T18:02:53.273Z,6.93
2018-12-06T18:05:27.838Z,4.50
2018-12-06T18:07:59.356Z,5.80
2018-12-06T18:10:34.479Z,7.93
2018-12-06T18:13:17.520Z,8.37
2018-12-06T18:15:46.437Z,6.57
2018-12-06T18:18:14.670Z,6.00
2018-12-06T18:20:42.976Z,7.33
2018-12-06T18:23:17.568Z,18.40
2018-12-06T18:25:45.892Z,20.60
2018-12-06T18:28:14.328Z,10.10
2018-12-06T18:33:42.548Z,5.10
2018-12-06T18:36:15.112Z,4.57
2018-12-06T18:38:46.855Z,5.60
2018-12-06T18:41:15.195Z,7.77
2018-12-06T18:43:47.370Z,16.40
2018-12-06T18:46:19.361Z,8.40
2018-12-06T18:48:57.101Z,7.70
2018-12-06T18:51:31.428Z,7.80
2018-12-06T18:54:03.645Z,16.00
2018-12-06T18:56:37.989Z,16.90
2018-12-06T18:59:11.904Z,10.07
2018-12-06T19:04:39.883Z,14.57
2018-12-06T19:07:08.103Z,11.50
2018-12-06T19:09:36.264Z,12.20
2018-12-06T19:12:10.165Z,10.70
2018-12-06T19:14:54.566Z,10.83
2018-12-06T19:17:26.250Z,7.40
2018-12-06T19:22:55.358Z,13.40
2018-12-06T19:25:23.579Z,7.30
2018-12-06T19:27:51.832Z,15.67
2018-12-06T19:30:20.085Z,9.70
2018-12-06T19:32:48.322Z,18.30
2018-12-06T19:35:19.748Z,11.80
2018-12-06T19:37:51.547Z,14.83
2018-12-06T19:40:25.904Z,10.40
2018-12-06T19:42:58.141Z,11.97
2018-12-06T19:45:26.472Z,10.30
2018-12-06T19:47:54.656Z,12.50
2018-12-06T19:50:22.831Z,16.57
2018-12-06T19:52:51.093Z,7.83
2018-12-06T19:55:19.417Z,10.70
2018-12-06T19:57:47.712Z,13.10
2018-12-06T20:00:15.987Z,8.10
2018-12-06T20:02:44.241Z,10.67
2018-12-06T20:05:12.477Z,9.20
2018-12-06T20:07:40.882Z,11.40
2018-12-06T20:10:10.241Z,6.17
2018-12-06T20:12:38.654Z,18.10
2018-12-06T20:15:07.670Z,8.00
2018-12-06T20:17:36.108Z,10.53
2018-12-06T20:20:04.894Z,7.97
2018-12-06T20:22:33.215Z,5.80
2018-12-06T20:25:01.578Z,6.57
2018-12-06T20:27:29.740Z,8.90
2018-12-06T20:29:57.912Z,6.40
2018-12-06T20:32:26.167Z,7.73
2018-12-06T20:34:54.336Z,9.60
2018-12-06T20:37:22.556Z,9.10
2018-12-06T20:39:50.698Z,6.73
2018-12-06T20:42:19.860Z,6.27
2018-12-06T20:44:48.391Z,6.50
2018-12-06T20:50:12.878Z,11.70
2018-12-06T20:53:03.508Z,10.40
2018-12-06T20:55:36.090Z,6.30
2018-12-06T20:58:04.364Z,7.27
2018-12-06T21:00:33.199Z,6.13
2018-12-06T21:03:07.344Z,13.63
2018-12-06T21:05:38.808Z,12.40
2018-12-06T21:11:02.788Z,11.77
2018-12-06T21:13:30.965Z,11.50
2018-12-06T21:15:59.117Z,15.10
2018-12-06T21:18:27.271Z,9.97
2018-12-06T21:20:55.469Z,10.33
2018-12-06T21:23:23.641Z,9.60
2018-12-06T21:25:51.784Z,11.03
2018-12-06T21:28:19.957Z,12.40
2018-12-06T21:30:48.176Z,11.90
2018-12-06T21:33:21.298Z,9.65
2018-12-06T21:35:55.515Z,10.43
2018-12-06T21:38:29.276Z,5.57
2018-12-06T21:40:57.463Z,7.10
2018-12-06T21:43:25.701Z,5.43
2018-12-06T21:45:53.925Z,6.80
2018-12-06T21:48:22.098Z,6.43
2018-12-06T21:50:50.304Z,12.03
2018-12-06T21:53:38.774Z,6.57
2018-12-06T21:58:59.785Z,11.53
2018-12-06T22:01:28.045Z,13.60
2018-12-06T22:03:56.241Z,13.40
2018-12-06T22:06:24.384Z,13.23
2018-12-06T22:08:52.649Z,9.80
2018-12-06T22:11:20.974Z,12.40
2018-12-06T22:13:49.312Z,8.43
2018-12-06T22:16:34.128Z,10.07
2018-12-06T22:19:14.317Z,17.90
2018-12-06T22:22:00.274Z,10.57
2018-12-06T22:24:35.566Z,39.90
2018-12-06T22:27:09.915Z,38.63
2018-12-06T22:32:35.060Z,28.20
2018-12-06T22:35:22.095Z,10.00
2018-12-06T22:38:09.194Z,9.67
2018-12-06T22:40:47.105Z,5.90
